<<    Dezember 2012    >>
Datum    Temp.       Tempmin      Tempmax    Taup.       Taup.min      Taup.max    Feuchte    Feuchtemin    Feuchtemax    Druck    Druckmin    Druckmax    Regen    Wind    Benmax  
  01.12.2012  2,1    -1,4    00:00    4,8    15:43  0,6    -1,7    00:00    2,9    11:09  90,2    75    19:56    98    00:00  1014,8    1012    21:11    1016    00:11  0,9  1,6  12,2  
  02.12.2012  3,3    1,7    07:46    5,3    14:12  2,4    1,4    07:46    3,8    12:33  94,3    84    14:31    98    01:05  1013,2    1009    03:11    1019    22:56  2,1  4,9  20,2  
  03.12.2012  3,0    1,4    13:44    5,4    22:29  1,8    -1,6    08:59    5,1    22:29  92,0    73    10:45    98    13:02  1011,7    1004    18:25    1018    00:00  4,6  3,0  14,4  
  04.12.2012  4,5    3,5    20:29    6,2    13:51  3,6    2,1    14:54    5,0    00:00  94,1    76    14:07    98    00:00  1002,0    1000    14:40    1005    00:00  0,9  3,8  21,6  
  05.12.2012  3,0    1,3    23:10    4,0    13:14  2,7    1,0    23:10    3,6    12:40  97,9    96    13:50    98    23:59  1005,1    1002    04:55    1008    21:40  4,9  2,4  16,6  
  06.12.2012  0,9    -0,2    06:57    2,6    13:38  -0,4    -1,9    23:44    1,5    00:14  90,7    81    13:50    98    00:00  1015,0    1008    00:00    1018    15:40  0,0  3,9  17,3  
  07.12.2012  -0,0    -2,1    23:58    1,1    05:23  -1,7    -4,3    05:25    -0,1    13:40  89,3    67    05:25    98    09:37  1006,2    1001    12:10    1015    00:00  0,0  4,5  20,9  
  08.12.2012  -4,7    -8,4    08:29    -1,7    14:25  -5,2    -8,7    08:29    -2,3    12:31  96,5    90    15:19    98    23:59  1022,0    1011    00:09    1027    21:25  1,8  0,2  6,5  
  09.12.2012  1,2    -5,1    00:00    4,5    18:19  0,9    -5,4    00:00    4,2    18:19  97,9    97    03:43    98    00:00  1016,3    1007    21:54    1027    00:10  7,7  4,4  20,9  
  10.12.2012  3,0    1,1    23:59    4,3    13:36  1,4    -2,7    18:09    3,7    05:11  89,7    71    18:09    98    00:00  1012,6    1007    01:24    1020    23:09  0,7  6,8  28,1  
  11.12.2012  0,1    -2,3    18:50    1,4    13:52  -2,6    -6,0    15:09    0,3    08:49  82,7    60    13:41    96    07:57  1025,4    1020    00:00    1029    23:42  0,0  3,5  17,3  
  12.12.2012  -0,1    -2,3    23:02    2,9    14:53  -5,1    -6,7    17:58    -3,6    05:14  69,6    56    15:07    83    04:34  1023,5    1019    22:23    1028    00:00  0,0  2,1  14,0  
  13.12.2012  -0,9    -2,6    05:07    1,0    23:05  -6,3    -8,9    08:41    -1,5    23:59  67,0    55    11:26    84    23:59  1013,3    1009    19:46    1020    00:00  0,0  3,9  16,6  
  14.12.2012  4,3    0,9    00:00    7,6    22:11  2,7    -1,7    00:14    7,2    23:37  89,2    75    15:44    98    19:08  1001,1    992    20:16    1009    00:00  3,9  5,6  24,8  
  15.12.2012  7,8    5,1    08:53    10,4    13:21  6,1    4,8    08:53    7,8    11:04  89,5    73    15:09    98    00:00  1000,4    994    00:00    1005    19:02  0,9  2,7  12,6  
  16.12.2012  7,3    5,2    23:59    10,3    12:51  6,4    4,9    23:59    7,7    12:42  94,2    78    13:45    98    23:59  1005,4    1003    00:31    1007    09:49  3,7  1,5  9,7  
  17.12.2012  6,7    4,7    00:29    9,1    13:24  6,4    4,4    00:29    8,8    13:24  98,0    97    13:51    98    00:00  1005,8    1004    14:45    1008    23:59  4,8  0,9  7,6  
  18.12.2012  6,1    3,8    07:19    7,8    13:26  5,6    3,5    07:19    6,6    12:42  96,9    89    13:59    98    00:00  1014,2    1009    00:00    1021    23:46  0,0  0,4  10,1  
  19.12.2012  5,2    3,7    21:52    6,5    14:12  4,8    3,4    21:52    5,9    12:55  97,1    90    15:20    98    00:00  1023,1    1021    00:00    1025    14:00  0,0  1,0  10,4  
  20.12.2012  2,9    2,0    20:03    4,2    13:10  1,2    -1,5    14:26    3,7    00:16  89,3    67    14:13    98    00:00  1015,5    1010    23:59    1023    00:00  3,9  5,1  27,0  
  21.12.2012  4,5    2,3    00:00    7,3    23:52  4,2    2,0    00:00    7,0    23:52  98,0    98    00:00    98    00:00  1012,2    1009    00:46    1018    23:59  3,7  1,5  12,6  
  22.12.2012  7,1    6,2    20:39    8,5    12:35  6,6    5,9    20:39    7,5    11:19  97,1    91    12:55    98    00:00  1014,2    1005    23:44    1019    05:30  10,5  2,8  16,6  
  23.12.2012  11,5    6,8    00:00    13,8    13:24  11,0    6,5    00:00    13,0    11:00  96,4    89    13:28    98    00:00  1006,7    1003    03:30    1011    19:59  8,5  4,8  21,2  
  24.12.2012  10,3    8,5    00:59    13,0    13:27  9,0    6,7    20:03    12,7    13:27  92,2    73    20:48    98    00:00  1006,5    1002    17:29    1011    00:00  3,9  1,9  13,0  
  25.12.2012  9,9    8,4    11:22    11,2    01:26  7,1    4,8    21:27    9,1    08:56  83,0    68    21:20    98    10:15  1001,6    999    05:29    1005    23:58  2,8  4,3  20,2  
  26.12.2012  8,0    6,1    08:37    9,9    00:15  6,2    4,1    14:17    7,5    12:08  88,6    72    00:00    98    08:56  1009,2    1005    00:00    1012    11:58  4,8  3,3  16,2  
  27.12.2012  8,2    6,3    19:25    10,3    02:57  5,9    4,1    05:26    7,5    00:06  85,7    70    03:39    98    23:59  1006,0    1001    13:59    1016    23:43  6,7  3,7  22,3  
  28.12.2012  7,0    5,3    05:19    8,6    14:03  6,3    5,0    05:19    8,0    11:47  95,6    79    14:40    98    00:00  1023,4    1016    00:00    1026    08:28  0,9  2,6  12,6  
  29.12.2012  10,2    8,4    00:00    12,0    13:25  7,4    4,6    21:06    9,0    10:54  83,1    66    22:56    96    03:23  1015,4    1009    19:12    1022    00:00  0,0  5,6  20,5  
  30.12.2012  8,3    5,6    12:13    10,9    00:47  3,7    1,2    08:52    5,9    00:47  73,0    64    08:37    92    12:35  1015,3    1010    00:00    1020    22:43  1,8  4,8  25,9  
  31.12.2012  9,2    7,3    03:08    10,8    14:28  4,4    3,4    07:01    5,3    14:09  71,9    64    14:58    80    03:58  1014,4    1007    23:59    1019    00:00  0,0  4,2  17,3  
 
  Gesamt  4,8  -8,4            13,8            3,1  -8,9            13,0            89,4  55            98            1012,0  992            1029            84,2  3,3  28,1  
 
  Mittelwert  4,8  2,6            6,9            3,1  0,7            5,3            89,4  76,9            96,2            1012,0  1006,7            1017,0            2,7  3,3  17,0  
  Minimum  -4,7  -8,4            -1,7            -6,3  -8,9            -3,6            67,0  55,0            80,0            1000,4  992,0            1005,0            0,0  0,2  6,5  
  Maximum  11,5  8,5            13,8            11,0  6,7            13,0            98,0  98,0            98,0            1025,4  1021,0            1029,0            10,5  6,8  28,1  

  Heie Tage    Tmax >=30C     0  
  Sommertage    Tmax >=25C     0  
  Warme Tage    Tmax >=20C     0  
  Kalte Tage    Tmax  <10C     22  
  Frosttage    Tmin  <0C     8  
  Eistage    Tmax  <0C     1  
  Regentage > 0 mm    22  
  Regentage > 2 mm    15  
  Regentage > 10 mm    1  
  Regentage > 20 mm    0